createdAt,value
2023-05-11T00:00:53.293Z,6.80
2023-05-11T00:03:20.156Z,6.70
2023-05-11T00:05:49.723Z,7.60
2023-05-11T00:08:17.242Z,7.18
2023-05-11T00:10:48.171Z,6.70
2023-05-11T00:13:14.987Z,6.90
2023-05-11T00:15:41.835Z,6.32
2023-05-11T00:18:08.780Z,6.38
2023-05-11T00:20:35.787Z,6.90
2023-05-11T00:23:02.654Z,6.28
2023-05-11T00:25:29.285Z,7.05
2023-05-11T00:27:55.993Z,7.30
2023-05-11T00:30:22.810Z,7.18
2023-05-11T00:32:51.923Z,6.88
2023-05-11T00:35:18.782Z,6.75
2023-05-11T00:37:45.749Z,6.75
2023-05-11T00:40:12.654Z,7.50
2023-05-11T00:42:39.375Z,6.97
2023-05-11T00:45:06.662Z,6.85
2023-05-11T00:47:33.459Z,7.60
2023-05-11T00:50:00.472Z,7.20
2023-05-11T00:52:27.302Z,7.68
2023-05-11T00:54:54.019Z,6.97
2023-05-11T00:57:21.367Z,8.23
2023-05-11T00:59:49.512Z,7.13
2023-05-11T01:02:16.936Z,7.13
2023-05-11T01:04:44.562Z,7.55
2023-05-11T01:07:21.016Z,7.82
2023-05-11T01:10:07.440Z,7.88
2023-05-11T01:13:13.637Z,6.78
2023-05-11T01:15:51.723Z,6.68
2023-05-11T01:18:31.229Z,6.72
2023-05-11T01:21:04.374Z,6.55
2023-05-11T01:23:58.192Z,7.20
2023-05-11T01:26:55.430Z,7.13
2023-05-11T01:30:01.977Z,6.45
2023-05-11T01:32:33.238Z,7.25
2023-05-11T01:35:23.092Z,7.22
2023-05-11T01:37:54.573Z,6.80
2023-05-11T01:40:25.741Z,7.25
2023-05-11T01:43:03.965Z,7.63
2023-05-11T01:45:34.602Z,6.90
2023-05-11T01:48:04.241Z,6.53
2023-05-11T01:50:33.449Z,7.78
2023-05-11T01:53:02.958Z,8.63
2023-05-11T01:55:32.140Z,7.57
2023-05-11T01:57:59.791Z,7.57
2023-05-11T02:00:26.476Z,8.15
2023-05-11T02:02:54.876Z,7.97
2023-05-11T02:05:25.117Z,7.15
2023-05-11T02:07:54.179Z,8.35
2023-05-11T02:10:25.127Z,8.43
2023-05-11T02:12:53.834Z,8.70
2023-05-11T02:15:23.804Z,8.30
2023-05-11T02:17:52.727Z,8.05
2023-05-11T02:20:20.493Z,7.75
2023-05-11T02:22:47.898Z,8.15
2023-05-11T02:25:16.644Z,8.40
2023-05-11T02:27:43.771Z,8.02
2023-05-11T02:30:11.532Z,7.25
2023-05-11T02:32:46.797Z,8.35
2023-05-11T02:35:21.698Z,7.65
2023-05-11T02:37:49.488Z,7.95
2023-05-11T02:40:20.941Z,8.75
2023-05-11T02:42:53.278Z,8.77
2023-05-11T02:45:20.636Z,7.53
2023-05-11T02:47:56.378Z,8.27
2023-05-11T02:50:30.155Z,8.05
2023-05-11T02:53:03.087Z,8.32
2023-05-11T02:55:31.138Z,9.00
2023-05-11T02:57:58.346Z,8.13
2023-05-11T03:00:25.915Z,8.05
2023-05-11T03:02:52.979Z,8.30
2023-05-11T03:05:21.599Z,7.93
2023-05-11T03:07:48.299Z,8.10
2023-05-11T03:10:15.007Z,8.07
2023-05-11T03:12:44.874Z,7.80
2023-05-11T03:15:16.087Z,7.63
2023-05-11T03:17:46.552Z,7.53
2023-05-11T03:20:16.451Z,8.73
2023-05-11T03:22:45.216Z,8.88
2023-05-11T03:25:13.068Z,9.05
2023-05-11T03:27:42.352Z,8.73
2023-05-11T03:30:11.829Z,8.93
2023-05-11T03:32:43.189Z,7.63
2023-05-11T03:35:10.096Z,8.88
2023-05-11T03:37:38.860Z,9.52
2023-05-11T03:40:09.796Z,8.73
2023-05-11T03:42:53.238Z,8.73
2023-05-11T03:45:21.814Z,8.80
2023-05-11T03:47:52.137Z,8.77
2023-05-11T03:50:21.148Z,8.93
2023-05-11T03:52:49.117Z,9.50
2023-05-11T03:55:16.353Z,8.57
2023-05-11T03:57:43.403Z,9.25
2023-05-11T04:00:11.622Z,10.10
2023-05-11T04:02:45.738Z,8.77
2023-05-11T04:05:13.249Z,8.95
2023-05-11T04:07:41.583Z,9.85
2023-05-11T04:10:08.673Z,9.88
2023-05-11T04:12:35.736Z,9.95
2023-05-11T04:15:02.550Z,9.68
2023-05-11T04:17:29.233Z,8.88
2023-05-11T04:19:56.050Z,9.43
2023-05-11T04:22:23.350Z,9.55
2023-05-11T04:24:50.135Z,9.43
2023-05-11T04:27:16.792Z,8.98
2023-05-11T04:29:43.633Z,8.40
2023-05-11T04:32:10.518Z,8.63
2023-05-11T04:34:37.312Z,9.35
2023-05-11T04:37:07.436Z,9.30
2023-05-11T04:39:35.418Z,9.93
2023-05-11T04:42:02.293Z,9.45
2023-05-11T04:44:29.616Z,9.10
2023-05-11T04:46:57.920Z,8.82
2023-05-11T04:49:24.765Z,9.05
2023-05-11T04:51:51.463Z,9.35
2023-05-11T04:54:18.205Z,9.05
2023-05-11T04:56:45.020Z,8.63
2023-05-11T04:59:11.848Z,8.52
2023-05-11T05:01:39.028Z,9.88
2023-05-11T05:04:05.941Z,9.93
2023-05-11T05:06:32.830Z,10.02
2023-05-11T05:08:59.521Z,9.27
2023-05-11T05:11:26.234Z,10.25
2023-05-11T05:13:54.151Z,9.93
2023-05-11T05:16:20.928Z,9.88
2023-05-11T05:18:48.445Z,9.65
2023-05-11T05:21:15.781Z,10.13
2023-05-11T05:23:42.394Z,9.60
2023-05-11T05:26:09.096Z,10.40
2023-05-11T05:28:37.011Z,9.23
2023-05-11T05:31:04.342Z,9.75
2023-05-11T05:33:33.356Z,9.93
2023-05-11T05:36:00.243Z,9.65
2023-05-11T05:38:27.001Z,10.20
2023-05-11T05:40:54.423Z,10.13
2023-05-11T05:43:21.323Z,10.02
2023-05-11T05:45:48.131Z,10.65
2023-05-11T05:48:14.838Z,10.40
2023-05-11T05:50:41.640Z,9.82
2023-05-11T05:53:08.930Z,9.23
2023-05-11T05:55:36.224Z,9.30
2023-05-11T05:58:04.905Z,9.18
2023-05-11T06:00:31.876Z,9.50
2023-05-11T06:03:04.737Z,8.95
2023-05-11T06:05:31.713Z,9.50
2023-05-11T06:08:10.003Z,9.25
2023-05-11T06:10:38.813Z,9.48
2023-05-11T06:13:08.640Z,8.98
2023-05-11T06:15:36.410Z,9.30
2023-05-11T06:18:10.327Z,9.10
2023-05-11T06:20:38.910Z,8.80
2023-05-11T06:23:06.479Z,8.07
2023-05-11T06:25:37.064Z,9.05
2023-05-11T06:28:04.354Z,9.07
2023-05-11T06:30:31.420Z,9.40
2023-05-11T06:32:59.453Z,9.90
2023-05-11T06:35:26.195Z,8.82
2023-05-11T06:37:52.998Z,8.73
2023-05-11T06:40:20.148Z,8.98
2023-05-11T06:42:47.028Z,9.43
2023-05-11T06:45:13.905Z,8.70
2023-05-11T06:47:42.765Z,9.07
2023-05-11T06:50:09.939Z,9.20
2023-05-11T06:52:37.939Z,9.07
2023-05-11T06:55:06.358Z,8.48
2023-05-11T06:57:33.120Z,8.40
2023-05-11T06:59:59.801Z,9.82
2023-05-11T07:02:26.451Z,9.15
2023-05-11T07:04:53.418Z,8.98
2023-05-11T07:07:20.228Z,10.32
2023-05-11T07:09:46.927Z,9.48
2023-05-11T07:12:13.693Z,8.93
2023-05-11T07:14:40.419Z,8.40
2023-05-11T07:17:07.136Z,8.30
2023-05-11T07:19:33.905Z,9.05
2023-05-11T07:22:01.801Z,8.88
2023-05-11T07:24:28.542Z,8.95
2023-05-11T07:26:56.924Z,8.85
2023-05-11T07:29:23.520Z,9.35
2023-05-11T07:31:50.311Z,8.68
2023-05-11T07:34:16.985Z,9.60
2023-05-11T07:36:43.843Z,7.85
2023-05-11T07:39:10.865Z,9.10
2023-05-11T07:41:37.666Z,8.98
2023-05-11T07:44:04.650Z,8.95
2023-05-11T07:46:31.325Z,8.23
2023-05-11T07:49:13.672Z,8.93
2023-05-11T07:51:42.355Z,8.80
2023-05-11T07:54:09.049Z,8.25
2023-05-11T07:56:36.243Z,8.00
2023-05-11T07:59:02.906Z,9.30
2023-05-11T08:01:29.565Z,8.15
2023-05-11T08:03:56.292Z,8.50
2023-05-11T08:06:23.048Z,7.85
2023-05-11T08:08:50.852Z,8.15
2023-05-11T08:11:20.732Z,8.02
2023-05-11T08:13:47.482Z,8.40
2023-05-11T08:16:15.010Z,7.60
2023-05-11T08:18:41.870Z,6.47
2023-05-11T08:21:08.583Z,6.32
2023-05-11T08:23:35.356Z,5.13
2023-05-11T08:26:02.110Z,4.10
2023-05-11T08:28:28.748Z,3.80
2023-05-11T08:30:56.802Z,3.25
2023-05-11T08:33:36.575Z,3.00
2023-05-11T08:36:06.286Z,2.40
2023-05-11T08:38:33.433Z,2.17
2023-05-11T08:41:01.838Z,2.13
2023-05-11T08:43:29.394Z,1.40
2023-05-11T08:46:02.722Z,1.15
2023-05-11T08:48:30.804Z,1.30
2023-05-11T08:50:57.960Z,1.10
2023-05-11T08:53:24.888Z,1.10
2023-05-11T08:55:52.103Z,1.02
2023-05-11T08:58:22.165Z,0.85
2023-05-11T09:00:49.706Z,1.33
2023-05-11T09:03:17.934Z,1.20
2023-05-11T09:05:46.934Z,1.48
2023-05-11T09:08:15.265Z,1.00
2023-05-11T09:10:43.589Z,1.02
2023-05-11T09:13:10.889Z,1.25
2023-05-11T09:15:38.330Z,1.00
2023-05-11T09:18:05.693Z,1.00
2023-05-11T09:20:33.921Z,1.40
2023-05-11T09:23:00.997Z,1.63
2023-05-11T09:25:33.015Z,1.10
2023-05-11T09:28:00.494Z,1.00
2023-05-11T09:30:28.213Z,1.17
2023-05-11T09:32:57.107Z,1.30
2023-05-11T09:35:31.906Z,1.30
2023-05-11T09:38:07.696Z,1.20
2023-05-11T09:40:37.271Z,0.93
2023-05-11T09:43:19.448Z,1.08
2023-05-11T09:45:48.644Z,0.80
2023-05-11T09:48:21.594Z,0.77
2023-05-11T09:50:59.022Z,1.15
2023-05-11T09:53:34.806Z,0.98
2023-05-11T09:56:01.497Z,0.90
2023-05-11T09:58:44.641Z,1.00
2023-05-11T10:01:11.437Z,0.90
2023-05-11T10:04:21.975Z,0.90
2023-05-11T10:06:53.171Z,0.70
2023-05-11T10:09:25.447Z,0.80
2023-05-11T10:11:53.399Z,0.80
2023-05-11T10:14:20.449Z,0.80
2023-05-11T10:16:47.928Z,0.93
2023-05-11T10:19:15.060Z,0.73
2023-05-11T10:21:42.286Z,1.05
2023-05-11T10:24:10.711Z,0.90
2023-05-11T10:26:38.413Z,0.93
2023-05-11T10:29:05.843Z,1.10
2023-05-11T10:31:33.192Z,0.80
2023-05-11T10:34:01.882Z,0.82
2023-05-11T10:36:29.090Z,0.80
2023-05-11T10:38:55.825Z,0.90
2023-05-11T10:41:28.348Z,0.60
2023-05-11T10:44:01.641Z,0.50
2023-05-11T10:46:42.813Z,0.80
2023-05-11T10:49:24.015Z,0.90
2023-05-11T10:52:09.059Z,0.88
2023-05-11T10:55:08.625Z,0.95
2023-05-11T10:57:47.790Z,0.60
2023-05-11T11:00:51.863Z,0.95
2023-05-11T11:03:18.749Z,1.05
2023-05-11T11:05:46.355Z,1.05
2023-05-11T11:08:13.110Z,1.10
2023-05-11T11:10:41.068Z,1.30
2023-05-11T11:13:12.967Z,1.38
2023-05-11T11:15:55.031Z,1.35
2023-05-11T11:18:26.240Z,1.20
2023-05-11T11:20:57.763Z,1.27
2023-05-11T11:23:49.981Z,1.25
2023-05-11T11:26:47.268Z,1.17
2023-05-11T11:29:14.159Z,1.45
2023-05-11T11:31:41.714Z,1.40
2023-05-11T11:34:33.328Z,1.20
2023-05-11T11:37:03.270Z,1.02
2023-05-11T11:39:50.055Z,1.45
2023-05-11T11:42:17.865Z,1.25
2023-05-11T11:44:45.399Z,1.33
2023-05-11T11:47:12.419Z,1.30
2023-05-11T11:49:50.158Z,1.10
2023-05-11T11:52:29.132Z,1.33
2023-05-11T11:54:59.668Z,1.50
2023-05-11T11:57:35.642Z,1.50
2023-05-11T12:00:12.921Z,1.38
2023-05-11T12:02:43.735Z,1.45
2023-05-11T12:05:19.811Z,1.23
2023-05-11T12:07:51.625Z,1.90
2023-05-11T12:10:20.057Z,1.58
2023-05-11T12:12:48.547Z,1.30
2023-05-11T12:15:26.022Z,1.40
2023-05-11T12:17:52.834Z,1.30
2023-05-11T12:20:20.723Z,1.20
2023-05-11T12:22:49.062Z,1.70
2023-05-11T12:25:20.239Z,1.38
2023-05-11T12:28:03.933Z,1.35
2023-05-11T12:30:33.406Z,1.65
2023-05-11T12:33:01.114Z,1.52
2023-05-11T12:35:29.933Z,1.60
2023-05-11T12:37:57.745Z,1.48
2023-05-11T12:40:24.790Z,1.50
2023-05-11T12:42:56.292Z,1.70
2023-05-11T12:45:24.666Z,2.33
2023-05-11T12:47:53.358Z,1.30
2023-05-11T12:50:21.229Z,0.90
2023-05-11T12:52:49.503Z,1.60
2023-05-11T12:55:30.390Z,1.15
2023-05-11T12:58:18.624Z,1.20
2023-05-11T13:00:57.067Z,1.50
2023-05-11T13:03:32.569Z,1.40
2023-05-11T13:06:13.153Z,1.42
2023-05-11T13:08:44.729Z,1.40
2023-05-11T13:11:25.364Z,1.50
2023-05-11T13:13:53.271Z,1.40
2023-05-11T13:16:28.077Z,1.40
2023-05-11T13:19:05.781Z,1.38
2023-05-11T13:21:33.366Z,1.60
2023-05-11T13:24:01.987Z,1.88
2023-05-11T13:26:32.794Z,2.15
2023-05-11T13:29:10.083Z,1.70
2023-05-11T13:31:51.841Z,1.90
2023-05-11T13:34:19.919Z,1.40
2023-05-11T13:36:47.421Z,2.08
2023-05-11T13:39:14.196Z,2.13
2023-05-11T13:41:40.867Z,2.15
2023-05-11T13:44:07.825Z,2.08
2023-05-11T13:46:35.687Z,1.90
2023-05-11T13:49:04.515Z,1.80
2023-05-11T13:51:32.077Z,1.80
2023-05-11T13:53:59.569Z,1.40
2023-05-11T13:56:26.310Z,1.60
2023-05-11T13:58:53.035Z,1.48
2023-05-11T14:01:19.785Z,1.50
2023-05-11T14:03:52.011Z,1.23
2023-05-11T14:06:21.969Z,1.48
2023-05-11T14:08:48.646Z,1.83
2023-05-11T14:11:15.481Z,1.67
2023-05-11T14:13:42.089Z,1.50
2023-05-11T14:16:09.955Z,1.80
2023-05-11T14:18:36.830Z,1.60
2023-05-11T14:21:03.642Z,1.17
2023-05-11T14:23:30.445Z,1.40
2023-05-11T14:25:57.155Z,1.60
2023-05-11T14:28:23.969Z,1.83
2023-05-11T14:30:50.747Z,1.65
2023-05-11T14:33:17.512Z,1.60
2023-05-11T14:35:44.200Z,1.75
2023-05-11T14:38:11.092Z,1.48
2023-05-11T14:40:37.726Z,1.73
2023-05-11T14:43:04.800Z,1.48
2023-05-11T14:45:32.765Z,1.63
2023-05-11T14:47:59.871Z,2.13
2023-05-11T14:50:28.141Z,2.08
2023-05-11T14:52:54.843Z,1.90
2023-05-11T14:55:21.707Z,2.15
2023-05-11T14:57:48.521Z,2.10
2023-05-11T15:00:15.749Z,1.95
2023-05-11T15:02:42.412Z,1.95
2023-05-11T15:05:09.474Z,1.77
2023-05-11T15:07:36.787Z,2.38
2023-05-11T15:10:04.306Z,2.53
2023-05-11T15:12:30.990Z,1.98
2023-05-11T15:14:57.634Z,2.08
2023-05-11T15:17:24.455Z,2.33
2023-05-11T15:19:51.147Z,2.25
2023-05-11T15:22:18.882Z,2.40
2023-05-11T15:24:45.586Z,2.55
2023-05-11T15:27:12.332Z,2.30
2023-05-11T15:29:39.043Z,2.25
2023-05-11T15:32:06.295Z,2.45
2023-05-11T15:34:32.920Z,2.53
2023-05-11T15:37:00.130Z,2.17
2023-05-11T15:39:26.780Z,2.08
2023-05-11T15:41:53.438Z,2.38
2023-05-11T15:44:20.602Z,2.38
2023-05-11T15:46:47.361Z,2.63
2023-05-11T15:49:14.043Z,2.83
2023-05-11T15:51:40.953Z,2.83
2023-05-11T15:54:07.987Z,3.15
2023-05-11T15:56:34.778Z,2.70
2023-05-11T15:59:01.444Z,2.83
2023-05-11T16:01:28.136Z,3.10
2023-05-11T16:03:56.397Z,3.05
2023-05-11T16:06:23.182Z,3.53
2023-05-11T16:08:49.841Z,3.55
2023-05-11T16:11:18.699Z,3.70
2023-05-11T16:13:46.490Z,3.58
2023-05-11T16:16:13.685Z,3.55
2023-05-11T16:18:40.399Z,3.33
2023-05-11T16:21:07.145Z,3.28
2023-05-11T16:23:34.084Z,3.10
2023-05-11T16:26:00.987Z,2.70
2023-05-11T16:28:27.661Z,3.10
2023-05-11T16:30:57.761Z,3.05
2023-05-11T16:33:26.042Z,3.05
2023-05-11T16:35:53.191Z,3.17
2023-05-11T16:38:21.434Z,3.08
2023-05-11T16:40:49.786Z,3.38
2023-05-11T16:43:16.849Z,3.20
2023-05-11T16:45:44.060Z,3.25
2023-05-11T16:48:10.755Z,3.20
2023-05-11T16:50:37.599Z,3.25
2023-05-11T16:53:05.190Z,3.50
2023-05-11T16:55:31.879Z,3.20
2023-05-11T16:57:58.894Z,3.42
2023-05-11T17:00:26.001Z,3.53
2023-05-11T17:02:52.715Z,4.07
2023-05-11T17:05:21.362Z,3.83
2023-05-11T17:07:48.053Z,3.30
2023-05-11T17:10:14.793Z,3.75
2023-05-11T17:12:41.667Z,4.20
2023-05-11T17:15:11.726Z,4.18
2023-05-11T17:17:38.663Z,4.35
2023-05-11T17:20:07.699Z,4.88
2023-05-11T17:22:35.136Z,6.43
2023-05-11T17:25:05.388Z,6.10
2023-05-11T17:27:32.494Z,10.13
2023-05-11T17:29:59.139Z,9.70
2023-05-11T17:32:26.130Z,6.78
2023-05-11T17:34:52.968Z,5.43
2023-05-11T17:37:31.334Z,4.97
2023-05-11T17:40:00.899Z,5.35
2023-05-11T17:42:28.397Z,5.55
2023-05-11T17:44:55.776Z,5.00
2023-05-11T17:47:22.485Z,4.75
2023-05-11T17:49:49.193Z,5.40
2023-05-11T17:52:16.023Z,6.30
2023-05-11T17:54:42.677Z,5.00
2023-05-11T17:57:09.334Z,5.60
2023-05-11T17:59:36.059Z,5.70
2023-05-11T18:02:03.330Z,5.95
2023-05-11T18:04:30.406Z,6.28
2023-05-11T18:06:57.227Z,6.07
2023-05-11T18:09:23.974Z,6.38
2023-05-11T18:11:50.631Z,6.93
2023-05-11T18:14:17.284Z,7.15
2023-05-11T18:16:44.126Z,7.97
2023-05-11T18:19:11.001Z,7.57
2023-05-11T18:21:37.969Z,7.38
2023-05-11T18:24:04.910Z,8.27
2023-05-11T18:26:31.613Z,8.98
2023-05-11T18:28:59.721Z,9.63
2023-05-11T18:31:27.512Z,9.23
2023-05-11T18:33:55.926Z,9.60
2023-05-11T18:36:23.062Z,9.32
2023-05-11T18:38:49.902Z,10.98
2023-05-11T18:41:16.774Z,10.00
2023-05-11T18:43:48.171Z,9.68
2023-05-11T18:46:14.886Z,9.02
2023-05-11T18:48:41.540Z,9.15
2023-05-11T18:51:08.524Z,10.00
2023-05-11T18:53:35.204Z,9.30
2023-05-11T18:56:01.881Z,9.32
2023-05-11T18:58:28.570Z,9.50
2023-05-11T19:00:55.241Z,9.10
2023-05-11T19:03:22.242Z,8.80
2023-05-11T19:05:49.239Z,8.40
2023-05-11T19:08:16.530Z,9.02
2023-05-11T19:10:45.134Z,10.20
2023-05-11T19:13:12.963Z,8.73
2023-05-11T19:15:40.180Z,8.90
2023-05-11T19:18:06.946Z,8.90
2023-05-11T19:20:34.816Z,8.25
2023-05-11T19:23:01.746Z,8.43
2023-05-11T19:25:28.373Z,8.82
2023-05-11T19:27:57.098Z,8.63
2023-05-11T19:30:24.627Z,7.82
2023-05-11T19:32:51.355Z,7.90
2023-05-11T19:35:19.008Z,8.00
2023-05-11T19:37:48.751Z,8.00
2023-05-11T19:40:44.620Z,7.93
2023-05-11T19:43:06.698Z,7.10
2023-05-11T19:45:33.937Z,7.35
2023-05-11T19:48:00.625Z,7.63
2023-05-11T19:50:27.899Z,8.60
2023-05-11T19:52:54.650Z,7.28
2023-05-11T19:55:21.570Z,7.40
2023-05-11T19:57:48.428Z,8.05
2023-05-11T20:00:18.065Z,7.90
2023-05-11T20:02:45.208Z,8.00
2023-05-11T20:05:12.136Z,8.27
2023-05-11T20:07:39.498Z,7.85
2023-05-11T20:10:06.795Z,8.55
2023-05-11T20:12:33.688Z,8.20
2023-05-11T20:15:00.748Z,9.80
2023-05-11T20:17:27.461Z,8.18
2023-05-11T20:19:54.078Z,7.90
2023-05-11T20:22:22.464Z,8.38
2023-05-11T20:24:49.098Z,9.07
2023-05-11T20:27:15.840Z,8.02
2023-05-11T20:29:42.900Z,7.63
2023-05-11T20:32:09.609Z,7.43
2023-05-11T20:34:36.253Z,7.72
2023-05-11T20:37:02.930Z,7.18
2023-05-11T20:39:29.616Z,7.60
2023-05-11T20:41:59.020Z,7.22
2023-05-11T20:44:26.222Z,8.07
2023-05-11T20:46:52.830Z,7.63
2023-05-11T20:49:34.642Z,7.25
2023-05-11T20:52:05.766Z,6.85
2023-05-11T20:54:34.773Z,7.28
2023-05-11T20:57:02.265Z,6.85
2023-05-11T21:02:00.278Z,8.35
2023-05-11T21:04:27.661Z,7.25
2023-05-11T21:06:55.110Z,7.22
2023-05-11T21:09:21.731Z,7.75
2023-05-11T21:11:48.924Z,7.40
2023-05-11T21:14:15.737Z,8.13
2023-05-11T21:16:42.747Z,7.50
2023-05-11T21:19:09.522Z,6.95
2023-05-11T21:21:36.289Z,7.22
2023-05-11T21:24:03.904Z,7.65
2023-05-11T21:26:30.544Z,8.05
2023-05-11T21:28:57.751Z,8.57
2023-05-11T21:31:24.509Z,8.43
2023-05-11T21:33:51.894Z,7.25
2023-05-11T21:36:18.743Z,8.60
2023-05-11T21:38:45.439Z,8.00
2023-05-11T21:41:12.180Z,8.82
2023-05-11T21:43:38.921Z,8.65
2023-05-11T21:46:06.087Z,8.95
2023-05-11T21:48:32.727Z,9.18
2023-05-11T21:50:59.459Z,8.60
2023-05-11T21:53:26.352Z,8.88
2023-05-11T21:55:52.995Z,9.05
2023-05-11T21:58:19.707Z,9.65
2023-05-11T22:00:46.417Z,9.13
2023-05-11T22:03:13.399Z,9.60
2023-05-11T22:05:40.167Z,9.52
2023-05-11T22:08:14.773Z,9.27
2023-05-11T22:10:43.038Z,9.75
2023-05-11T22:13:10.515Z,10.35
2023-05-11T22:15:37.202Z,9.48
2023-05-11T22:18:04.899Z,11.35
2023-05-11T22:20:31.880Z,10.88
2023-05-11T22:22:59.120Z,9.90
2023-05-11T22:25:26.094Z,10.95
2023-05-11T22:27:52.869Z,11.18
2023-05-11T22:30:20.150Z,10.95
2023-05-11T22:32:47.333Z,12.75
2023-05-11T22:35:14.080Z,11.55
2023-05-11T22:37:40.742Z,11.77
2023-05-11T22:40:07.920Z,12.70
2023-05-11T22:42:34.731Z,12.18
2023-05-11T22:45:02.046Z,13.52
2023-05-11T22:47:29.237Z,13.88
2023-05-11T22:49:55.981Z,15.65
2023-05-11T22:52:22.968Z,14.80
2023-05-11T22:54:54.405Z,15.23
2023-05-11T22:57:22.002Z,15.13
2023-05-11T22:59:48.698Z,16.35
2023-05-11T23:02:15.441Z,15.55
2023-05-11T23:04:42.160Z,15.80
2023-05-11T23:07:11.984Z,16.02
2023-05-11T23:09:38.604Z,16.58
2023-05-11T23:12:05.607Z,16.90
2023-05-11T23:14:32.412Z,16.50
2023-05-11T23:16:59.081Z,16.08
2023-05-11T23:19:25.823Z,16.35
2023-05-11T23:21:52.558Z,16.33
2023-05-11T23:24:19.329Z,16.60
2023-05-11T23:26:46.087Z,16.33
2023-05-11T23:29:12.760Z,16.45
2023-05-11T23:31:39.473Z,17.73
2023-05-11T23:34:06.190Z,16.45
2023-05-11T23:36:33.565Z,18.20
2023-05-11T23:39:00.200Z,18.48
2023-05-11T23:41:26.818Z,17.92
2023-05-11T23:43:53.472Z,18.30
2023-05-11T23:46:20.160Z,18.67
2023-05-11T23:48:47.579Z,18.33
2023-05-11T23:51:15.182Z,17.80
2023-05-11T23:53:41.933Z,17.90
2023-05-11T23:56:08.651Z,18.83
2023-05-11T23:58:35.422Z,18.23
